This is the latest recevied weather packets stored in our database for station/object HJ3GNC-15. If no packets are shown the sender has not sent any weather packets the latest 10 day(s).
| Time | Temp. | Humidity | Pressure | Rain* | Wind** | Luminosity | Snow |
|---|---|---|---|---|---|---|---|
| 1777942379 | 15.56° C | 93% | 1015 hPa | 0 mm | - | - | - |
| 1777941426 | 15.56° C | 93% | 1015 hPa | 0 mm | - | - | - |
| 1777940459 | 16.11° C | 91% | 1014 hPa | 0 mm | - | - | - |
| 1777939517 | 16.11° C | 93% | 1013 hPa | 0 mm | - | - | - |
| 1777938575 | 16.11° C | 93% | 1013 hPa | 0 mm | - | - | - |
| 1777937635 | 16.11° C | 93% | 1013 hPa | 0 mm | - | - | - |
| 1777936692 | 16.67° C | 87% | 1012 hPa | 0 mm | - | - | - |
| 1777935745 | 16.67° C | 88% | 1012 hPa | 0 mm | - | - | - |
| 1777934803 | 16.67° C | 89% | 1012 hPa | 0 mm | - | - | - |
| 1777933862 | 16.67° C | 89% | 1012 hPa | 0 mm | - | - | - |
| 1777932920 | 18.89° C | 79% | 1011 hPa | 0 mm | - | - | - |
| 1777931976 | 18.89° C | 81% | 1011 hPa | 0 mm | - | - | - |
| 1777931032 | 18.89° C | 82% | 1011 hPa | 0 mm | - | - | - |
| 1777930086 | 18.89° C | 75% | 1010 hPa | 0 mm | - | - | - |
| 1777929143 | 18.89° C | 75% | 1010 hPa | 0 mm | - | - | - |
| 1777928198 | 18.89° C | 77% | 1010 hPa | 0 mm | - | - | - |
| 1777927243 | 27.78° C | 64% | 1010 hPa | 0 mm | - | - | - |
| 1777926298 | 27.22° C | 64% | 1011 hPa | 0 mm | - | - | - |
| 1777925325 | 26.67° C | 64% | 1011 hPa | 0 mm | - | - | - |
| 1777924381 | 26.11° C | 64% | 1011 hPa | 0 mm | - | - | - |
| 1777923439 | 25.56° C | 64% | 1011 hPa | 0 mm | - | - | - |
| 1777922501 | 25° C | 64% | 1011 hPa | 0 mm | - | - | - |
| 1777921549 | 24.44° C | 64% | 1011 hPa | 0 mm | - | - | - |
| 1777920608 | 23.89° C | 64% | 1011 hPa | 0 mm | - | - | - |
| 1777919666 | 23.33° C | 64% | 1011 hPa | 0 mm | - | - | - |
* Rain latest hour (hover to see other rain measurements)
** Current wind speed in m/s (hover to see current wind gust speed)